Time;durP1;ratioP1;P1;durP2;ratioP2;P2;SDS_P1;SDS_P2;PMS_P1;PMS_P2;Temp;Humidity;BMP_temperature;BMP_pressure;BME280_temperature;BME280_humidity;BME280_pressure;Samples;Min_cycle;Max_cycle;Signal;HPM_P1;HPM_P2
2022/01/04 00:06:45;;;;;;;3.2;6.1;;;;;;;8.1;68.2;97930;;;;
2022/01/04 00:16:42;;;;;;;3.2;6.1;;;;;;;8.1;68.3;97910;;;;
2022/01/04 00:27:42;;;;;;;2.5;5.3;;;;;;;8.1;68.8;97900;;;;
2022/01/04 00:37:42;;;;;;;2.5;5.3;;;;;;;8;69.3;97900;;;;
2022/01/04 00:49:09;;;;;;;2.5;5.3;;;;;;;8.1;69.4;97900;;;;
2022/01/04 00:58:42;;;;;;;2.1;5.6;;;;;;;8;70;97880;;;;
2022/01/04 01:09:57;;;;;;;2.1;5.6;;;;;;;8.1;70.3;97880;;;;
2022/01/04 01:20:42;;;;;;;2.3;4.6;;;;;;;8;71.4;97860;;;;
2022/01/04 01:30:43;;;;;;;2.3;4.6;;;;;;;7.8;73.2;97850;;;;
2022/01/04 01:41:42;;;;;;;2.3;4.6;;;;;;;7.7;74.5;97850;;;;
2022/01/04 01:51:42;;;;;;;2;3.2;;;;;;;7.6;75.4;97850;;;;
2022/01/04 02:01:42;;;;;;;2;3.2;;;;;;;7.5;76.4;97860;;;;
2022/01/04 02:11:43;;;;;;;2;3.2;;;;;;;7.3;78.2;97850;;;;
2022/01/04 02:21:42;;;;;;;2.5;6.1;;;;;;;7.3;78.3;97840;;;;
2022/01/04 02:32:42;;;;;;;2.5;6.1;;;;;;;7.2;79.4;97820;;;;
2022/01/04 02:43:42;;;;;;;2.5;6.1;;;;;;;7.3;78.9;97800;;;;
2022/01/04 02:54:42;;;;;;;2.3;5;;;;;;;7.3;78.6;97790;;;;
2022/01/04 03:05:42;;;;;;;2.3;5;;;;;;;7.3;78.7;97770;;;;
2022/01/04 03:15:42;;;;;;;2.3;5;;;;;;;7.2;79.3;97760;;;;
2022/01/04 03:26:42;;;;;;;2.8;5.7;;;;;;;7.1;79.2;97730;;;;
2022/01/04 03:37:42;;;;;;;2.8;5.7;;;;;;;7;79.5;97700;;;;
2022/01/04 03:47:42;;;;;;;2.8;5.7;;;;;;;6.9;80.5;97690;;;;
2022/01/04 03:58:42;;;;;;;1.6;2.5;;;;;;;6.9;80.4;97680;;;;
2022/01/04 04:09:42;;;;;;;1.6;2.5;;;;;;;7;79.7;97660;;;;
2022/01/04 04:19:42;;;;;;;1.4;2.6;;;;;;;7;79.7;97650;;;;
2022/01/04 04:30:42;;;;;;;1.4;2.6;;;;;;;7.1;79.7;97630;;;;
2022/01/04 04:41:42;;;;;;;1.4;2.6;;;;;;;7.1;79.7;97640;;;;
2022/01/04 04:52:42;;;;;;;2;4.5;;;;;;;7.1;79.5;97620;;;;
2022/01/04 05:03:42;;;;;;;2;4.5;;;;;;;7.2;79.2;97600;;;;
2022/01/04 05:13:42;;;;;;;2;4.5;;;;;;;7;79.6;97600;;;;
2022/01/04 05:24:42;;;;;;;3.4;6.1;;;;;;;7;78.8;97590;;;;
2022/01/04 05:35:42;;;;;;;3.4;6.1;;;;;;;6.8;79.8;97580;;;;
2022/01/04 05:45:42;;;;;;;3.4;6.1;;;;;;;6.8;80.8;97570;;;;
2022/01/04 05:56:42;;;;;;;2.6;5.8;;;;;;;7;81.1;97560;;;;
2022/01/04 06:06:42;;;;;;;2.6;5.8;;;;;;;7.2;80.3;97540;;;;
2022/01/04 06:16:42;;;;;;;2.6;5.8;;;;;;;7.4;79.8;97540;;;;
2022/01/04 06:26:42;;;;;;;1.7;2.8;;;;;;;7.3;79.2;97530;;;;
2022/01/04 06:36:42;;;;;;;1.7;2.8;;;;;;;7.5;78.6;97530;;;;
2022/01/04 06:46:45;;;;;;;1.7;2.8;;;;;;;7.4;78.4;97520;;;;
2022/01/04 06:56:43;;;;;;;1.6;3;;;;;;;7.6;77.8;97510;;;;
2022/01/04 07:07:43;;;;;;;1.6;3;;;;;;;7.9;77;97500;;;;
2022/01/04 07:17:43;;;;;;;1.6;3;;;;;;;8;75.7;97500;;;;
2022/01/04 07:27:43;;;;;;;2.2;4.4;;;;;;;8.1;75.7;97500;;;;
2022/01/04 07:37:43;;;;;;;2.2;4.4;;;;;;;8.1;75.8;97480;;;;
2022/01/04 07:47:43;;;;;;;2.2;4.4;;;;;;;8;76.7;97440;;;;
2022/01/04 07:58:43;;;;;;;4.7;13.5;;;;;;;8.3;75.1;97430;;;;
2022/01/04 08:08:43;;;;;;;4.7;13.5;;;;;;;8.7;74.1;97420;;;;
2022/01/04 08:19:43;;;;;;;2.3;6.5;;;;;;;8.9;73.8;97410;;;;
2022/01/04 08:30:43;;;;;;;2.3;6.5;;;;;;;8.8;74.2;97380;;;;
2022/01/04 08:41:43;;;;;;;2.3;6.5;;;;;;;8.9;73.1;97360;;;;
2022/01/04 08:52:43;;;;;;;2.8;10;;;;;;;8.7;74.5;97350;;;;
2022/01/04 09:03:43;;;;;;;2.8;10;;;;;;;8.8;73.9;97320;;;;
2022/01/04 09:13:44;;;;;;;2.8;10;;;;;;;8.8;73.3;97300;;;;
2022/01/04 09:23:43;;;;;;;2.8;7.1;;;;;;;8.8;74.7;97280;;;;
2022/01/04 09:34:43;;;;;;;2.8;7.1;;;;;;;9.1;73.7;97250;;;;
2022/01/04 09:45:43;;;;;;;2.8;7.1;;;;;;;9.3;73.6;97220;;;;
2022/01/04 09:55:43;;;;;;;3.4;5.8;;;;;;;9.5;72.7;97190;;;;
2022/01/04 10:06:43;;;;;;;3.4;5.8;;;;;;;9.8;72.5;97170;;;;
2022/01/04 10:17:43;;;;;;;3.4;5.8;;;;;;;9.8;70.2;97150;;;;
2022/01/04 10:27:43;;;;;;;3.4;9.6;;;;;;;9.9;70.4;97150;;;;
2022/01/04 10:38:43;;;;;;;3.4;9.6;;;;;;;9.7;70.6;97130;;;;
2022/01/04 10:48:43;;;;;;;2.3;4.6;;;;;;;9.7;72.6;97120;;;;
2022/01/04 11:06:20;;;;;;;2.3;4.6;;;;;;;9.5;74.8;97090;;;;
2022/01/04 11:11:10;;;;;;;2.3;4.6;;;;;;;9.6;75.5;97090;;;;
2022/01/04 11:21:10;;;;;;;4.7;15.5;;;;;;;9.8;74.5;97080;;;;
2022/01/04 11:31:10;;;;;;;4.7;15.5;;;;;;;9.9;74.2;97070;;;;
2022/01/04 11:42:10;;;;;;;4.7;15.5;;;;;;;10;73.9;97040;;;;
2022/01/04 11:52:10;;;;;;;3.8;9.8;;;;;;;9.9;75.7;97020;;;;
2022/01/04 12:03:10;;;;;;;3.8;9.8;;;;;;;10.1;74.3;97000;;;;
2022/01/04 12:13:10;;;;;;;3.8;9.8;;;;;;;10;74.6;96990;;;;
2022/01/04 12:24:10;;;;;;;2;3.7;;;;;;;10.1;74.2;96970;;;;
2022/01/04 12:34:10;;;;;;;2;3.7;;;;;;;10.3;72.5;96940;;;;
2022/01/04 12:44:10;;;;;;;2;3.7;;;;;;;10.3;71.5;96910;;;;
2022/01/04 12:55:10;;;;;;;1.9;3.5;;;;;;;10.7;70.2;96900;;;;
2022/01/04 13:05:11;;;;;;;1.9;3.5;;;;;;;10.8;70.2;96870;;;;
2022/01/04 13:16:10;;;;;;;1.9;3.5;;;;;;;11;68.5;96850;;;;
2022/01/04 13:26:11;;;;;;;1.9;3.4;;;;;;;11.1;67.5;96850;;;;
2022/01/04 13:37:10;;;;;;;1.9;3.4;;;;;;;11;67.4;96820;;;;
2022/01/04 13:47:11;;;;;;;1.9;3.4;;;;;;;11;66.9;96790;;;;
2022/01/04 13:58:10;;;;;;;1.8;3.6;;;;;;;10.8;68.5;96780;;;;
2022/01/04 14:08:10;;;;;;;1.8;3.6;;;;;;;10.7;68.9;96770;;;;
2022/01/04 14:19:10;;;;;;;3.6;6.9;;;;;;;10.5;69.8;96740;;;;
2022/01/04 14:30:10;;;;;;;3.6;6.9;;;;;;;10.3;70;96720;;;;
2022/01/04 14:40:10;;;;;;;3.6;6.9;;;;;;;10.4;69.1;96700;;;;
2022/01/04 14:50:10;;;;;;;3.5;6.5;;;;;;;10.4;68.6;96680;;;;
2022/01/04 15:00:10;;;;;;;3.5;6.5;;;;;;;10.5;68.7;96680;;;;
2022/01/04 15:10:10;;;;;;;3.5;6.5;;;;;;;10.4;69.2;96670;;;;
2022/01/04 15:20:10;;;;;;;4.4;8.3;;;;;;;10.3;68.7;96660;;;;
2022/01/04 15:30:10;;;;;;;4.4;8.3;;;;;;;10.2;68.4;96650;;;;
2022/01/04 15:40:14;;;;;;;4.4;8.3;;;;;;;10.4;67.3;96630;;;;
2022/01/04 15:51:10;;;;;;;5.1;7.9;;;;;;;10.5;65.9;96610;;;;
2022/01/04 16:02:10;;;;;;;5.1;7.9;;;;;;;10.6;65.8;96600;;;;
2022/01/04 16:13:12;;;;;;;5.1;7.9;;;;;;;10.6;66.1;96590;;;;
2022/01/04 16:23:10;;;;;;;4.9;8.8;;;;;;;10.8;66;96580;;;;
2022/01/04 16:33:10;;;;;;;4.9;8.8;;;;;;;11;66.1;96560;;;;
2022/01/04 16:44:10;;;;;;;4.9;8.8;;;;;;;11;66.5;96570;;;;
2022/01/04 16:54:10;;;;;;;5.7;9;;;;;;;11.1;66.7;96580;;;;
2022/01/04 17:05:10;;;;;;;5.7;9;;;;;;;11.2;66.7;96570;;;;
2022/01/04 17:16:10;;;;;;;5.7;9;;;;;;;11.4;66.8;96560;;;;
2022/01/04 17:27:10;;;;;;;4.9;10.2;;;;;;;11.5;67.3;96540;;;;
2022/01/04 17:37:10;;;;;;;4.9;10.2;;;;;;;11.5;67.4;96540;;;;
2022/01/04 17:48:11;;;;;;;4.5;9.1;;;;;;;11.5;67.8;96540;;;;
2022/01/04 17:58:10;;;;;;;4.5;9.1;;;;;;;11.5;67.3;96520;;;;
2022/01/04 18:08:10;;;;;;;4.5;9.1;;;;;;;11.6;67.1;96540;;;;
2022/01/04 18:19:10;;;;;;;3.4;5.4;;;;;;;11.5;67.1;96520;;;;
2022/01/04 18:29:10;;;;;;;3.4;5.4;;;;;;;11.6;67.2;96500;;;;
2022/01/04 18:39:10;;;;;;;3.4;5.4;;;;;;;11.7;66.8;96500;;;;
2022/01/04 18:50:10;;;;;;;3.2;6.5;;;;;;;11.7;67;96490;;;;
2022/01/04 19:00:11;;;;;;;3.2;6.5;;;;;;;11.6;67.4;96500;;;;
2022/01/04 19:10:10;;;;;;;3.2;6.5;;;;;;;11.6;67;96490;;;;
2022/01/04 19:21:11;;;;;;;3.8;6.7;;;;;;;11.8;66.7;96500;;;;
2022/01/04 19:32:30;;;;;;;3.8;6.7;;;;;;;12;66.3;96500;;;;
2022/01/04 19:42:10;;;;;;;3.8;6.7;;;;;;;12.2;65.9;96500;;;;
2022/01/04 19:53:10;;;;;;;3.1;5.7;;;;;;;12.1;66.4;96490;;;;
2022/01/04 20:03:10;;;;;;;3.1;5.7;;;;;;;12.1;66.2;96480;;;;
2022/01/04 20:14:10;;;;;;;3.1;5.7;;;;;;;12.1;66.1;96500;;;;
2022/01/04 20:24:10;;;;;;;3.6;6;;;;;;;12;66;96480;;;;
2022/01/04 20:35:10;;;;;;;3.6;6;;;;;;;12;66.2;96480;;;;
2022/01/04 20:46:10;;;;;;;3.6;6;;;;;;;12.1;65.8;96480;;;;
2022/01/04 20:56:10;;;;;;;3.4;7.3;;;;;;;11.9;66;96470;;;;
2022/01/04 21:07:10;;;;;;;3.4;7.3;;;;;;;11.9;65.6;96500;;;;
2022/01/04 21:17:10;;;;;;;3.4;6.4;;;;;;;11.9;66;96520;;;;
2022/01/04 21:28:10;;;;;;;3.4;6.4;;;;;;;12;65.6;96530;;;;
2022/01/04 21:38:10;;;;;;;3.4;6.4;;;;;;;12.2;65.2;96550;;;;
2022/01/04 21:48:10;;;;;;;2.7;5.1;;;;;;;12.1;66.5;96540;;;;
2022/01/04 21:59:10;;;;;;;2.7;5.1;;;;;;;12.1;66.1;96560;;;;
2022/01/04 22:09:10;;;;;;;2.7;5.1;;;;;;;12.2;65.9;96580;;;;
2022/01/04 22:19:10;;;;;;;2.7;4.6;;;;;;;12.3;65.4;96610;;;;
2022/01/04 22:29:12;;;;;;;2.7;4.6;;;;;;;12.3;66.6;96640;;;;
2022/01/04 22:39:10;;;;;;;2.7;4.6;;;;;;;12;68.3;96720;;;;
2022/01/04 22:49:10;;;;;;;3;5.2;;;;;;;11.2;74.1;96730;;;;
2022/01/04 23:00:16;;;;;;;3;5.2;;;;;;;10.2;75.6;96780;;;;
2022/01/04 23:11:11;;;;;;;3;5.2;;;;;;;9.7;77.6;96780;;;;
2022/01/04 23:21:10;;;;;;;2.8;5.2;;;;;;;9.3;79.5;96800;;;;
2022/01/04 23:31:10;;;;;;;2.8;5.2;;;;;;;9.1;79.7;96820;;;;
2022/01/04 23:41:10;;;;;;;2.8;5.2;;;;;;;9;79.3;96860;;;;
2022/01/04 23:51:10;;;;;;;3.7;6.2;;;;;;;8.8;79.6;96830;;;;
